Clam Gulch, AK

7:52 PM AKDT on June 02, 2015 (GMT -0800)
Homer | | Change Station
CLOSE
Current Station
Airport
Location: Homer,
Elevation: 82 ft
Nearby Weather Stations

Elev 82 ft 59.65 °N, 151.48 °W | Updated 59 minutes ago

Clear
Clear
58 °F
Feels Like 58 °F
N
8
Wind Variable Wind from WSW

Today
High -- | Low -- °F
--% Chance of Precip.
Yesterday
High -- | Low -- °F
Precip. -- in
4:51 AM 11:16 PM
Full, 100% visible
Pressure 29.70 in
Visibility 10.0 miles
Clouds Clear
Dew Point 45 °F
Humidity 62%
Rainfall 0.00 in
Snow Depth Not available.
UV 3 out of 12
Pollen Not available.
Air Quality Not available.
Flu Activity Sporadic
METAR PAHO 030253Z 25007KT 10SM CLR 14/07 A2970 RMK AO2 SLP056 T01440072 56006

More Conditions Fewer Conditions

Pressure 29.70 in
Visibility 10.0 miles
Clouds Clear
Dew Point 45 °F
Humidity 62%
Rainfall 0.00 in
Snow Depth Not available.
UV 3 out of 12
Pollen Not available.
Air Quality Not available.
Flu Activity Sporadic
METAR PAHO 030253Z 25007KT 10SM CLR 14/07 A2970 RMK AO2 SLP056 T01440072 56006

More Conditions Fewer Conditions

10-Day Weather Forecast

×

Almanac

Astronomy

Jun. 02, 2015 Rise Set
Actual Time
Civil Twilight
Nautical Twilight
Astronomical Twilight
Moon
Length of Visible Light
Length of Day
Tomorrow will be .
, % of the Moon is Illuminated

Today's Extremes

State Highs State Lows

Community

WunderPhotos

Upload Photos

1,826,138 photos uploaded!

WunderBlogs® & News

Nearby

Air Quality

  Air Quality AQ Index Pollutant
Not available.

Snow Depth

Station Depth Elevation

Earthquake Activity

City Distance Mag. Time & Date
Minimum magnitude displayed is 2.5.

Coastal Water Temperatures

Place Temperature

Stations

Nearby Weather Stations

Station Location Temp. Windchill Dew Point Humidity Wind Precip. Elev Updated Type